sensor_id;sensor_type;location;lat;lon;timestamp;temperature;humidity
48589;DHT22;34369;51.174;6.738;2023-06-22T00:00:29;22.50;47.30
48589;DHT22;34369;51.174;6.738;2023-06-22T00:03:01;22.50;47.30
48589;DHT22;34369;51.174;6.738;2023-06-22T00:05:33;22.40;47.40
48589;DHT22;34369;51.174;6.738;2023-06-22T00:08:06;22.50;47.50
48589;DHT22;34369;51.174;6.738;2023-06-22T00:10:40;22.50;47.50
48589;DHT22;34369;51.174;6.738;2023-06-22T00:13:14;22.40;47.70
48589;DHT22;34369;51.174;6.738;2023-06-22T00:15:47;22.40;47.90
48589;DHT22;34369;51.174;6.738;2023-06-22T00:18:26;22.40;47.70
48589;DHT22;34369;51.174;6.738;2023-06-22T00:21:01;22.40;47.80
48589;DHT22;34369;51.174;6.738;2023-06-22T00:23:33;22.30;47.70
48589;DHT22;34369;51.174;6.738;2023-06-22T00:26:05;22.30;47.90
48589;DHT22;34369;51.174;6.738;2023-06-22T00:28:39;22.30;47.70
48589;DHT22;34369;51.174;6.738;2023-06-22T00:31:11;22.30;47.70
48589;DHT22;34369;51.174;6.738;2023-06-22T00:33:43;22.30;47.70
48589;DHT22;34369;51.174;6.738;2023-06-22T00:36:16;22.30;47.70
48589;DHT22;34369;51.174;6.738;2023-06-22T00:38:48;22.30;47.80
48589;DHT22;34369;51.174;6.738;2023-06-22T00:41:21;22.30;47.70
48589;DHT22;34369;51.174;6.738;2023-06-22T00:43:54;22.30;47.60
48589;DHT22;34369;51.174;6.738;2023-06-22T00:46:26;22.20;47.60
48589;DHT22;34369;51.174;6.738;2023-06-22T00:48:59;22.20;47.60
48589;DHT22;34369;51.174;6.738;2023-06-22T00:51:32;22.20;47.60
48589;DHT22;34369;51.174;6.738;2023-06-22T00:54:05;22.20;47.60
48589;DHT22;34369;51.174;6.738;2023-06-22T00:56:37;22.20;47.80
48589;DHT22;34369;51.174;6.738;2023-06-22T00:59:11;22.20;47.80
48589;DHT22;34369;51.174;6.738;2023-06-22T01:01:44;22.10;47.80
48589;DHT22;34369;51.174;6.738;2023-06-22T01:04:16;22.10;47.80
48589;DHT22;34369;51.174;6.738;2023-06-22T01:06:56;22.10;47.80
48589;DHT22;34369;51.174;6.738;2023-06-22T01:09:40;22.10;48.00
48589;DHT22;34369;51.174;6.738;2023-06-22T01:12:18;22.10;48.00
48589;DHT22;34369;51.174;6.738;2023-06-22T01:14:58;22.10;48.00
48589;DHT22;34369;51.174;6.738;2023-06-22T01:17:35;22.10;48.20
48589;DHT22;34369;51.174;6.738;2023-06-22T01:20:08;22.10;48.20
48589;DHT22;34369;51.174;6.738;2023-06-22T01:22:54;22.10;48.30
48589;DHT22;34369;51.174;6.738;2023-06-22T01:25:45;22.10;48.40
48589;DHT22;34369;51.174;6.738;2023-06-22T01:28:33;22.10;48.60
48589;DHT22;34369;51.174;6.738;2023-06-22T01:31:16;22.10;48.80
48589;DHT22;34369;51.174;6.738;2023-06-22T01:33:51;22.10;48.70
48589;DHT22;34369;51.174;6.738;2023-06-22T01:36:26;22.00;48.60
48589;DHT22;34369;51.174;6.738;2023-06-22T01:38:59;22.00;48.80
48589;DHT22;34369;51.174;6.738;2023-06-22T01:41:36;22.00;48.90
48589;DHT22;34369;51.174;6.738;2023-06-22T01:44:11;22.00;49.00
48589;DHT22;34369;51.174;6.738;2023-06-22T01:46:44;22.00;49.10
48589;DHT22;34369;51.174;6.738;2023-06-22T01:49:16;22.00;49.10
48589;DHT22;34369;51.174;6.738;2023-06-22T01:51:48;22.00;49.20
48589;DHT22;34369;51.174;6.738;2023-06-22T01:54:20;22.00;49.40
48589;DHT22;34369;51.174;6.738;2023-06-22T01:56:52;22.00;49.40
48589;DHT22;34369;51.174;6.738;2023-06-22T01:59:31;21.90;49.50
48589;DHT22;34369;51.174;6.738;2023-06-22T02:02:07;21.90;49.80
48589;DHT22;34369;51.174;6.738;2023-06-22T02:04:46;21.90;49.60
48589;DHT22;34369;51.174;6.738;2023-06-22T02:07:22;21.90;49.90
48589;DHT22;34369;51.174;6.738;2023-06-22T02:09:56;21.90;49.80
48589;DHT22;34369;51.174;6.738;2023-06-22T02:12:30;21.90;49.90
48589;DHT22;34369;51.174;6.738;2023-06-22T02:15:05;21.90;50.00
48589;DHT22;34369;51.174;6.738;2023-06-22T02:17:38;21.90;50.00
48589;DHT22;34369;51.174;6.738;2023-06-22T02:20:12;21.90;50.10
48589;DHT22;34369;51.174;6.738;2023-06-22T02:22:44;21.80;50.30
48589;DHT22;34369;51.174;6.738;2023-06-22T02:25:16;21.80;50.40
48589;DHT22;34369;51.174;6.738;2023-06-22T02:27:49;21.70;50.50
48589;DHT22;34369;51.174;6.738;2023-06-22T02:30:22;21.70;50.60
48589;DHT22;34369;51.174;6.738;2023-06-22T02:32:54;21.70;50.70
48589;DHT22;34369;51.174;6.738;2023-06-22T02:35:30;21.70;50.80
48589;DHT22;34369;51.174;6.738;2023-06-22T02:38:03;21.70;50.80
48589;DHT22;34369;51.174;6.738;2023-06-22T02:40:35;21.70;50.90
48589;DHT22;34369;51.174;6.738;2023-06-22T02:43:07;21.70;51.00
48589;DHT22;34369;51.174;6.738;2023-06-22T02:45:41;21.70;51.00
48589;DHT22;34369;51.174;6.738;2023-06-22T02:48:13;21.70;51.30
48589;DHT22;34369;51.174;6.738;2023-06-22T02:50:45;21.70;51.20
48589;DHT22;34369;51.174;6.738;2023-06-22T02:53:17;21.70;51.30
48589;DHT22;34369;51.174;6.738;2023-06-22T02:55:51;21.70;51.50
48589;DHT22;34369;51.174;6.738;2023-06-22T02:58:23;21.70;51.60
48589;DHT22;34369;51.174;6.738;2023-06-22T03:00:56;21.70;51.60
48589;DHT22;34369;51.174;6.738;2023-06-22T03:03:35;21.70;51.60
48589;DHT22;34369;51.174;6.738;2023-06-22T03:06:07;21.70;51.70
48589;DHT22;34369;51.174;6.738;2023-06-22T03:08:44;21.70;51.70
48589;DHT22;34369;51.174;6.738;2023-06-22T03:11:16;21.70;51.70
48589;DHT22;34369;51.174;6.738;2023-06-22T03:13:48;21.70;51.90
48589;DHT22;34369;51.174;6.738;2023-06-22T03:16:24;21.70;51.90
48589;DHT22;34369;51.174;6.738;2023-06-22T03:18:56;21.70;52.10
48589;DHT22;34369;51.174;6.738;2023-06-22T03:21:28;21.70;52.20
48589;DHT22;34369;51.174;6.738;2023-06-22T03:24:00;21.70;52.20
48589;DHT22;34369;51.174;6.738;2023-06-22T03:26:32;21.70;52.30
48589;DHT22;34369;51.174;6.738;2023-06-22T03:29:04;21.70;52.50
48589;DHT22;34369;51.174;6.738;2023-06-22T03:31:38;21.70;52.50
48589;DHT22;34369;51.174;6.738;2023-06-22T03:34:10;21.70;52.70
48589;DHT22;34369;51.174;6.738;2023-06-22T03:36:42;21.70;52.70
48589;DHT22;34369;51.174;6.738;2023-06-22T03:39:15;21.70;52.60
48589;DHT22;34369;51.174;6.738;2023-06-22T03:41:47;21.70;52.80
48589;DHT22;34369;51.174;6.738;2023-06-22T03:44:19;21.70;52.80
48589;DHT22;34369;51.174;6.738;2023-06-22T03:46:53;21.70;52.80
48589;DHT22;34369;51.174;6.738;2023-06-22T03:49:25;21.70;52.90
48589;DHT22;34369;51.174;6.738;2023-06-22T03:51:57;21.70;53.00
48589;DHT22;34369;51.174;6.738;2023-06-22T03:54:30;21.70;52.90
48589;DHT22;34369;51.174;6.738;2023-06-22T03:57:02;21.60;52.90
48589;DHT22;34369;51.174;6.738;2023-06-22T03:59:34;21.70;53.10
48589;DHT22;34369;51.174;6.738;2023-06-22T04:02:08;21.60;53.10
48589;DHT22;34369;51.174;6.738;2023-06-22T04:04:40;21.60;53.10
48589;DHT22;34369;51.174;6.738;2023-06-22T04:07:12;21.60;53.10
48589;DHT22;34369;51.174;6.738;2023-06-22T04:09:44;21.60;53.20
48589;DHT22;34369;51.174;6.738;2023-06-22T04:12:16;21.60;53.40
48589;DHT22;34369;51.174;6.738;2023-06-22T04:14:49;21.60;53.60
48589;DHT22;34369;51.174;6.738;2023-06-22T04:17:22;21.60;53.60
48589;DHT22;34369;51.174;6.738;2023-06-22T04:19:55;21.60;53.70
48589;DHT22;34369;51.174;6.738;2023-06-22T04:22:27;21.60;53.80
48589;DHT22;34369;51.174;6.738;2023-06-22T04:24:59;21.60;53.90
48589;DHT22;34369;51.174;6.738;2023-06-22T04:27:31;21.60;53.80
48589;DHT22;34369;51.174;6.738;2023-06-22T04:30:03;21.60;54.00
48589;DHT22;34369;51.174;6.738;2023-06-22T04:32:38;21.60;53.90
48589;DHT22;34369;51.174;6.738;2023-06-22T04:35:11;21.60;54.00
48589;DHT22;34369;51.174;6.738;2023-06-22T04:37:44;21.60;54.00
48589;DHT22;34369;51.174;6.738;2023-06-22T04:40:19;21.70;54.10
48589;DHT22;34369;51.174;6.738;2023-06-22T04:42:51;21.60;54.20
48589;DHT22;34369;51.174;6.738;2023-06-22T04:45:25;21.70;54.20
48589;DHT22;34369;51.174;6.738;2023-06-22T04:47:59;21.60;54.20
48589;DHT22;34369;51.174;6.738;2023-06-22T04:50:31;21.70;54.20
48589;DHT22;34369;51.174;6.738;2023-06-22T04:53:03;21.70;54.10
48589;DHT22;34369;51.174;6.738;2023-06-22T04:55:36;21.60;54.10
48589;DHT22;34369;51.174;6.738;2023-06-22T04:58:12;21.60;54.10
48589;DHT22;34369;51.174;6.738;2023-06-22T05:00:44;21.70;54.10
48589;DHT22;34369;51.174;6.738;2023-06-22T05:03:17;21.70;54.20
48589;DHT22;34369;51.174;6.738;2023-06-22T05:05:50;21.60;54.10
48589;DHT22;34369;51.174;6.738;2023-06-22T05:08:22;21.70;54.20
48589;DHT22;34369;51.174;6.738;2023-06-22T05:10:57;21.70;54.10
48589;DHT22;34369;51.174;6.738;2023-06-22T05:13:29;21.70;54.10
48589;DHT22;34369;51.174;6.738;2023-06-22T05:16:01;21.70;54.00
48589;DHT22;34369;51.174;6.738;2023-06-22T05:18:34;21.70;54.00
48589;DHT22;34369;51.174;6.738;2023-06-22T05:21:07;21.70;54.30
48589;DHT22;34369;51.174;6.738;2023-06-22T05:23:39;21.70;54.20
48589;DHT22;34369;51.174;6.738;2023-06-22T05:26:11;21.70;54.30
48589;DHT22;34369;51.174;6.738;2023-06-22T05:28:43;21.70;54.40
48589;DHT22;34369;51.174;6.738;2023-06-22T05:31:17;21.80;54.30
48589;DHT22;34369;51.174;6.738;2023-06-22T05:33:52;21.80;54.20
48589;DHT22;34369;51.174;6.738;2023-06-22T05:36:25;21.80;54.30
48589;DHT22;34369;51.174;6.738;2023-06-22T05:38:57;21.90;54.10
48589;DHT22;34369;51.174;6.738;2023-06-22T05:41:29;21.90;53.90
48589;DHT22;34369;51.174;6.738;2023-06-22T05:44:01;21.90;53.80
48589;DHT22;34369;51.174;6.738;2023-06-22T05:46:34;21.90;54.00
48589;DHT22;34369;51.174;6.738;2023-06-22T05:49:07;21.90;53.70
48589;DHT22;34369;51.174;6.738;2023-06-22T05:51:39;22.00;53.60
48589;DHT22;34369;51.174;6.738;2023-06-22T05:54:12;22.00;53.60
48589;DHT22;34369;51.174;6.738;2023-06-22T05:56:46;22.00;53.70
48589;DHT22;34369;51.174;6.738;2023-06-22T05:59:18;22.00;53.70
48589;DHT22;34369;51.174;6.738;2023-06-22T06:01:50;22.00;53.90
48589;DHT22;34369;51.174;6.738;2023-06-22T06:04:24;22.10;53.90
48589;DHT22;34369;51.174;6.738;2023-06-22T06:06:57;22.10;53.90
48589;DHT22;34369;51.174;6.738;2023-06-22T06:09:30;22.10;53.90
48589;DHT22;34369;51.174;6.738;2023-06-22T06:12:07;22.20;53.70
48589;DHT22;34369;51.174;6.738;2023-06-22T06:14:39;22.20;53.60
48589;DHT22;34369;51.174;6.738;2023-06-22T06:17:11;22.20;53.60
48589;DHT22;34369;51.174;6.738;2023-06-22T06:19:45;22.20;53.50
48589;DHT22;34369;51.174;6.738;2023-06-22T06:22:17;22.30;53.60
48589;DHT22;34369;51.174;6.738;2023-06-22T06:24:51;22.30;53.50
48589;DHT22;34369;51.174;6.738;2023-06-22T06:27:23;22.30;53.70
48589;DHT22;34369;51.174;6.738;2023-06-22T06:29:59;22.30;53.50
48589;DHT22;34369;51.174;6.738;2023-06-22T06:32:31;22.30;53.50
48589;DHT22;34369;51.174;6.738;2023-06-22T06:35:06;22.40;53.80
48589;DHT22;34369;51.174;6.738;2023-06-22T06:37:40;22.40;53.30
48589;DHT22;34369;51.174;6.738;2023-06-22T06:40:13;22.40;53.40
48589;DHT22;34369;51.174;6.738;2023-06-22T06:42:49;22.40;53.60
48589;DHT22;34369;51.174;6.738;2023-06-22T06:45:23;22.50;53.60
48589;DHT22;34369;51.174;6.738;2023-06-22T06:47:56;22.50;53.80
48589;DHT22;34369;51.174;6.738;2023-06-22T06:50:32;22.50;54.00
48589;DHT22;34369;51.174;6.738;2023-06-22T06:53:04;22.40;54.50
48589;DHT22;34369;51.174;6.738;2023-06-22T06:55:37;22.40;54.90
48589;DHT22;34369;51.174;6.738;2023-06-22T06:58:09;22.40;55.30
48589;DHT22;34369;51.174;6.738;2023-06-22T07:00:45;22.30;55.40
48589;DHT22;34369;51.174;6.738;2023-06-22T07:03:17;22.30;55.50
48589;DHT22;34369;51.174;6.738;2023-06-22T07:05:52;22.30;56.00
48589;DHT22;34369;51.174;6.738;2023-06-22T07:08:25;22.20;56.80
48589;DHT22;34369;51.174;6.738;2023-06-22T07:10:58;22.10;56.50
48589;DHT22;34369;51.174;6.738;2023-06-22T07:13:31;22.10;56.90
48589;DHT22;34369;51.174;6.738;2023-06-22T07:16:04;22.00;57.30
48589;DHT22;34369;51.174;6.738;2023-06-22T07:18:37;22.00;57.70
48589;DHT22;34369;51.174;6.738;2023-06-22T07:21:12;21.90;57.80
48589;DHT22;34369;51.174;6.738;2023-06-22T07:23:45;21.90;58.00
48589;DHT22;34369;51.174;6.738;2023-06-22T07:26:18;21.90;58.00
48589;DHT22;34369;51.174;6.738;2023-06-22T07:28:50;21.90;58.30
48589;DHT22;34369;51.174;6.738;2023-06-22T07:31:24;21.80;58.30
48589;DHT22;34369;51.174;6.738;2023-06-22T07:33:58;21.70;58.70
48589;DHT22;34369;51.174;6.738;2023-06-22T07:36:32;21.70;58.70
48589;DHT22;34369;51.174;6.738;2023-06-22T07:39:06;21.70;58.60
48589;DHT22;34369;51.174;6.738;2023-06-22T07:41:39;21.70;58.70
48589;DHT22;34369;51.174;6.738;2023-06-22T07:44:11;21.70;58.70
48589;DHT22;34369;51.174;6.738;2023-06-22T07:46:45;21.70;59.10
48589;DHT22;34369;51.174;6.738;2023-06-22T07:49:17;21.70;59.50
48589;DHT22;34369;51.174;6.738;2023-06-22T07:52:05;21.80;59.70
48589;DHT22;34369;51.174;6.738;2023-06-22T07:54:41;21.90;60.20
48589;DHT22;34369;51.174;6.738;2023-06-22T07:57:14;21.90;60.10
48589;DHT22;34369;51.174;6.738;2023-06-22T07:59:46;22.10;60.40
48589;DHT22;34369;51.174;6.738;2023-06-22T08:02:19;22.20;60.50
48589;DHT22;34369;51.174;6.738;2023-06-22T08:04:51;22.50;60.70
48589;DHT22;34369;51.174;6.738;2023-06-22T08:07:26;22.70;60.50
48589;DHT22;34369;51.174;6.738;2023-06-22T08:09:58;23.10;60.10
48589;DHT22;34369;51.174;6.738;2023-06-22T08:12:31;23.40;60.10
48589;DHT22;34369;51.174;6.738;2023-06-22T08:15:05;23.70;59.90
48589;DHT22;34369;51.174;6.738;2023-06-22T08:17:40;24.10;59.30
48589;DHT22;34369;51.174;6.738;2023-06-22T08:20:14;24.40;58.40
48589;DHT22;34369;51.174;6.738;2023-06-22T08:22:48;24.70;57.60
48589;DHT22;34369;51.174;6.738;2023-06-22T08:25:20;25.00;57.10
48589;DHT22;34369;51.174;6.738;2023-06-22T08:27:55;25.20;56.70
48589;DHT22;34369;51.174;6.738;2023-06-22T08:30:28;25.30;55.80
48589;DHT22;34369;51.174;6.738;2023-06-22T08:33:01;25.40;55.40
48589;DHT22;34369;51.174;6.738;2023-06-22T08:35:34;25.50;55.20
48589;DHT22;34369;51.174;6.738;2023-06-22T08:38:07;25.50;55.00
48589;DHT22;34369;51.174;6.738;2023-06-22T08:40:40;25.50;55.30
48589;DHT22;34369;51.174;6.738;2023-06-22T08:43:13;25.50;55.30
48589;DHT22;34369;51.174;6.738;2023-06-22T08:45:45;25.60;55.80
48589;DHT22;34369;51.174;6.738;2023-06-22T08:48:19;25.80;55.90
48589;DHT22;34369;51.174;6.738;2023-06-22T08:50:51;26.00;55.90
48589;DHT22;34369;51.174;6.738;2023-06-22T08:53:25;26.20;55.70
48589;DHT22;34369;51.174;6.738;2023-06-22T08:55:58;26.50;55.20
48589;DHT22;34369;51.174;6.738;2023-06-22T08:58:31;26.90;54.40
48589;DHT22;34369;51.174;6.738;2023-06-22T09:01:04;27.20;54.10
48589;DHT22;34369;51.174;6.738;2023-06-22T09:03:37;27.50;53.50
48589;DHT22;34369;51.174;6.738;2023-06-22T09:06:10;27.80;52.90
48589;DHT22;34369;51.174;6.738;2023-06-22T09:08:47;28.10;52.40
48589;DHT22;34369;51.174;6.738;2023-06-22T09:11:20;28.40;51.90
48589;DHT22;34369;51.174;6.738;2023-06-22T09:13:52;28.60;51.10
48589;DHT22;34369;51.174;6.738;2023-06-22T09:16:24;28.80;50.40
48589;DHT22;34369;51.174;6.738;2023-06-22T09:18:56;28.90;50.00
48589;DHT22;34369;51.174;6.738;2023-06-22T09:21:29;29.00;49.80
48589;DHT22;34369;51.174;6.738;2023-06-22T09:24:03;29.10;49.60
48589;DHT22;34369;51.174;6.738;2023-06-22T09:26:35;29.10;49.00
48589;DHT22;34369;51.174;6.738;2023-06-22T09:29:08;29.20;48.70
48589;DHT22;34369;51.174;6.738;2023-06-22T09:31:41;29.20;48.60
48589;DHT22;34369;51.174;6.738;2023-06-22T09:34:13;29.30;48.50
48589;DHT22;34369;51.174;6.738;2023-06-22T09:36:46;29.30;48.30
48589;DHT22;34369;51.174;6.738;2023-06-22T09:39:20;29.30;47.90
48589;DHT22;34369;51.174;6.738;2023-06-22T09:41:53;29.40;47.90
48589;DHT22;34369;51.174;6.738;2023-06-22T09:44:25;29.40;47.50
48589;DHT22;34369;51.174;6.738;2023-06-22T09:46:58;29.40;47.20
48589;DHT22;34369;51.174;6.738;2023-06-22T09:49:31;29.50;46.90
48589;DHT22;34369;51.174;6.738;2023-06-22T09:52:04;29.50;46.50
48589;DHT22;34369;51.174;6.738;2023-06-22T09:54:38;29.50;46.10
48589;DHT22;34369;51.174;6.738;2023-06-22T09:57:11;29.60;45.70
48589;DHT22;34369;51.174;6.738;2023-06-22T09:59:43;29.60;45.40
48589;DHT22;34369;51.174;6.738;2023-06-22T10:02:15;29.60;45.20
48589;DHT22;34369;51.174;6.738;2023-06-22T10:04:47;29.60;45.00
48589;DHT22;34369;51.174;6.738;2023-06-22T10:07:20;29.50;45.00
48589;DHT22;34369;51.174;6.738;2023-06-22T10:09:53;29.50;44.70
48589;DHT22;34369;51.174;6.738;2023-06-22T10:12:27;29.50;45.10
48589;DHT22;34369;51.174;6.738;2023-06-22T10:14:59;29.50;44.90
48589;DHT22;34369;51.174;6.738;2023-06-22T10:17:32;29.50;44.90
48589;DHT22;34369;51.174;6.738;2023-06-22T10:20:05;29.50;44.90
48589;DHT22;34369;51.174;6.738;2023-06-22T10:22:43;29.50;45.00
48589;DHT22;34369;51.174;6.738;2023-06-22T10:25:18;29.50;44.90
48589;DHT22;34369;51.174;6.738;2023-06-22T10:27:51;29.50;44.90
48589;DHT22;34369;51.174;6.738;2023-06-22T10:30:24;29.40;45.10
48589;DHT22;34369;51.174;6.738;2023-06-22T10:32:56;29.30;45.10
48589;DHT22;34369;51.174;6.738;2023-06-22T10:35:29;29.30;44.90
48589;DHT22;34369;51.174;6.738;2023-06-22T10:38:01;29.10;44.90
48589;DHT22;34369;51.174;6.738;2023-06-22T10:40:35;29.00;45.00
48589;DHT22;34369;51.174;6.738;2023-06-22T10:43:08;28.90;45.30
48589;DHT22;34369;51.174;6.738;2023-06-22T10:45:41;28.80;45.50
48589;DHT22;34369;51.174;6.738;2023-06-22T10:48:13;28.70;46.20
48589;DHT22;34369;51.174;6.738;2023-06-22T10:50:46;28.60;46.50
48589;DHT22;34369;51.174;6.738;2023-06-22T10:53:20;28.40;47.10
48589;DHT22;34369;51.174;6.738;2023-06-22T10:55:55;28.20;48.00
48589;DHT22;34369;51.174;6.738;2023-06-22T10:58:28;28.00;48.40
48589;DHT22;34369;51.174;6.738;2023-06-22T11:01:00;27.90;49.30
48589;DHT22;34369;51.174;6.738;2023-06-22T11:03:33;27.70;50.00
48589;DHT22;34369;51.174;6.738;2023-06-22T11:06:06;27.50;50.80
48589;DHT22;34369;51.174;6.738;2023-06-22T11:08:39;27.20;51.80
48589;DHT22;34369;51.174;6.738;2023-06-22T11:11:13;27.10;52.50
48589;DHT22;34369;51.174;6.738;2023-06-22T11:13:48;26.90;53.00
48589;DHT22;34369;51.174;6.738;2023-06-22T11:16:21;26.80;53.70
48589;DHT22;34369;51.174;6.738;2023-06-22T11:18:53;26.60;53.90
48589;DHT22;34369;51.174;6.738;2023-06-22T11:21:25;26.40;54.60
48589;DHT22;34369;51.174;6.738;2023-06-22T11:23:58;26.20;55.10
48589;DHT22;34369;51.174;6.738;2023-06-22T11:26:33;26.10;55.50
48589;DHT22;34369;51.174;6.738;2023-06-22T11:29:06;26.00;55.80
48589;DHT22;34369;51.174;6.738;2023-06-22T11:31:40;25.80;55.70
48589;DHT22;34369;51.174;6.738;2023-06-22T11:34:14;25.70;56.00
48589;DHT22;34369;51.174;6.738;2023-06-22T11:36:48;25.60;56.30
48589;DHT22;34369;51.174;6.738;2023-06-22T11:39:24;25.40;56.70
48589;DHT22;34369;51.174;6.738;2023-06-22T11:42:00;25.30;57.00
48589;DHT22;34369;51.174;6.738;2023-06-22T11:44:36;25.20;57.70
48589;DHT22;34369;51.174;6.738;2023-06-22T11:47:14;25.00;57.80
48589;DHT22;34369;51.174;6.738;2023-06-22T11:49:50;24.90;58.30
48589;DHT22;34369;51.174;6.738;2023-06-22T11:52:24;24.80;58.80
48589;DHT22;34369;51.174;6.738;2023-06-22T11:54:58;24.70;59.20
48589;DHT22;34369;51.174;6.738;2023-06-22T11:57:37;24.50;59.70
48589;DHT22;34369;51.174;6.738;2023-06-22T12:00:13;24.50;60.30
48589;DHT22;34369;51.174;6.738;2023-06-22T12:02:48;24.40;60.70
48589;DHT22;34369;51.174;6.738;2023-06-22T12:05:22;24.30;61.30
48589;DHT22;34369;51.174;6.738;2023-06-22T12:07:55;24.30;61.80
48589;DHT22;34369;51.174;6.738;2023-06-22T12:10:29;24.30;62.20
48589;DHT22;34369;51.174;6.738;2023-06-22T12:13:03;24.30;62.10
48589;DHT22;34369;51.174;6.738;2023-06-22T12:15:37;24.30;62.70
48589;DHT22;34369;51.174;6.738;2023-06-22T12:18:10;24.30;62.60
48589;DHT22;34369;51.174;6.738;2023-06-22T12:20:45;24.30;62.80
48589;DHT22;34369;51.174;6.738;2023-06-22T12:23:17;24.30;62.70
48589;DHT22;34369;51.174;6.738;2023-06-22T12:25:50;24.40;62.50
48589;DHT22;34369;51.174;6.738;2023-06-22T12:28:25;24.40;62.50
48589;DHT22;34369;51.174;6.738;2023-06-22T12:30:58;24.40;62.80
48589;DHT22;34369;51.174;6.738;2023-06-22T12:33:32;24.40;62.70
48589;DHT22;34369;51.174;6.738;2023-06-22T12:36:05;24.30;63.10
48589;DHT22;34369;51.174;6.738;2023-06-22T12:38:39;24.30;63.30
48589;DHT22;34369;51.174;6.738;2023-06-22T12:41:14;24.30;63.60
48589;DHT22;34369;51.174;6.738;2023-06-22T12:43:54;24.30;63.90
48589;DHT22;34369;51.174;6.738;2023-06-22T12:46:32;24.30;64.20
48589;DHT22;34369;51.174;6.738;2023-06-22T12:49:08;24.40;64.00
48589;DHT22;34369;51.174;6.738;2023-06-22T12:51:42;24.40;64.00
48589;DHT22;34369;51.174;6.738;2023-06-22T12:54:17;24.50;64.10
48589;DHT22;34369;51.174;6.738;2023-06-22T12:56:52;24.50;63.90
48589;DHT22;34369;51.174;6.738;2023-06-22T12:59:27;24.60;63.60
48589;DHT22;34369;51.174;6.738;2023-06-22T13:01:59;24.60;63.70
48589;DHT22;34369;51.174;6.738;2023-06-22T13:04:32;24.70;63.40
48589;DHT22;34369;51.174;6.738;2023-06-22T13:07:04;24.70;63.50
48589;DHT22;34369;51.174;6.738;2023-06-22T13:09:37;24.70;63.50
48589;DHT22;34369;51.174;6.738;2023-06-22T13:12:09;24.70;63.50
48589;DHT22;34369;51.174;6.738;2023-06-22T13:14:44;24.70;63.50
48589;DHT22;34369;51.174;6.738;2023-06-22T13:17:17;24.70;63.60
48589;DHT22;34369;51.174;6.738;2023-06-22T13:19:50;24.80;63.70
48589;DHT22;34369;51.174;6.738;2023-06-22T13:22:30;24.80;64.10
48589;DHT22;34369;51.174;6.738;2023-06-22T13:25:10;24.80;65.00
48589;DHT22;34369;51.174;6.738;2023-06-22T13:27:43;24.80;64.70
48589;DHT22;34369;51.174;6.738;2023-06-22T13:30:18;24.90;64.90
48589;DHT22;34369;51.174;6.738;2023-06-22T13:32:51;25.00;64.90
48589;DHT22;34369;51.174;6.738;2023-06-22T13:35:23;25.00;64.10
48589;DHT22;34369;51.174;6.738;2023-06-22T13:37:56;25.00;63.80
48589;DHT22;34369;51.174;6.738;2023-06-22T13:40:28;25.00;63.60
48589;DHT22;34369;51.174;6.738;2023-06-22T13:43:01;25.00;63.60
48589;DHT22;34369;51.174;6.738;2023-06-22T13:45:36;25.00;63.60
48589;DHT22;34369;51.174;6.738;2023-06-22T13:48:09;25.10;63.80
48589;DHT22;34369;51.174;6.738;2023-06-22T13:50:41;25.00;63.90
48589;DHT22;34369;51.174;6.738;2023-06-22T13:53:15;25.00;63.80
48589;DHT22;34369;51.174;6.738;2023-06-22T13:55:47;25.10;63.70
48589;DHT22;34369;51.174;6.738;2023-06-22T13:58:19;25.00;63.60
48589;DHT22;34369;51.174;6.738;2023-06-22T14:00:52;25.00;63.70
48589;DHT22;34369;51.174;6.738;2023-06-22T14:03:25;25.00;63.70
48589;DHT22;34369;51.174;6.738;2023-06-22T14:05:56;25.00;63.50
48589;DHT22;34369;51.174;6.738;2023-06-22T14:08:29;25.00;63.40
48589;DHT22;34369;51.174;6.738;2023-06-22T14:11:01;25.00;63.60
48589;DHT22;34369;51.174;6.738;2023-06-22T14:13:35;25.00;63.80
48589;DHT22;34369;51.174;6.738;2023-06-22T14:16:08;25.00;64.30
48589;DHT22;34369;51.174;6.738;2023-06-22T14:18:41;25.00;64.20
48589;DHT22;34369;51.174;6.738;2023-06-22T14:21:13;25.00;64.10
48589;DHT22;34369;51.174;6.738;2023-06-22T14:23:45;25.10;63.70
48589;DHT22;34369;51.174;6.738;2023-06-22T14:26:19;25.20;63.50
48589;DHT22;34369;51.174;6.738;2023-06-22T14:28:53;25.20;63.10
48589;DHT22;34369;51.174;6.738;2023-06-22T14:31:28;25.20;62.70
48589;DHT22;34369;51.174;6.738;2023-06-22T14:34:01;25.10;62.60
48589;DHT22;34369;51.174;6.738;2023-06-22T14:36:36;25.00;62.30
48589;DHT22;34369;51.174;6.738;2023-06-22T14:39:09;25.00;62.10
48589;DHT22;34369;51.174;6.738;2023-06-22T14:41:42;24.90;62.20
48589;DHT22;34369;51.174;6.738;2023-06-22T14:44:15;24.80;62.20
48589;DHT22;34369;51.174;6.738;2023-06-22T14:46:49;24.60;62.40
48589;DHT22;34369;51.174;6.738;2023-06-22T14:49:21;24.60;62.50
48589;DHT22;34369;51.174;6.738;2023-06-22T14:51:54;24.40;62.60
48589;DHT22;34369;51.174;6.738;2023-06-22T14:54:27;24.40;62.80
48589;DHT22;34369;51.174;6.738;2023-06-22T14:57:00;24.30;62.90
48589;DHT22;34369;51.174;6.738;2023-06-22T14:59:32;24.20;63.00
48589;DHT22;34369;51.174;6.738;2023-06-22T15:02:06;24.10;63.30
48589;DHT22;34369;51.174;6.738;2023-06-22T15:04:38;24.10;63.60
48589;DHT22;34369;51.174;6.738;2023-06-22T15:07:10;24.00;63.70
48589;DHT22;34369;51.174;6.738;2023-06-22T15:09:42;24.00;64.00
48589;DHT22;34369;51.174;6.738;2023-06-22T15:12:15;24.00;64.10
48589;DHT22;34369;51.174;6.738;2023-06-22T15:14:48;24.00;64.00
48589;DHT22;34369;51.174;6.738;2023-06-22T15:17:22;23.90;63.90
48589;DHT22;34369;51.174;6.738;2023-06-22T15:19:59;23.90;63.80
48589;DHT22;34369;51.174;6.738;2023-06-22T15:22:32;23.90;63.70
48589;DHT22;34369;51.174;6.738;2023-06-22T15:25:05;23.90;63.60
48589;DHT22;34369;51.174;6.738;2023-06-22T15:27:38;23.90;63.60
48589;DHT22;34369;51.174;6.738;2023-06-22T15:30:11;23.90;63.40
48589;DHT22;34369;51.174;6.738;2023-06-22T15:32:45;23.90;63.30
48589;DHT22;34369;51.174;6.738;2023-06-22T15:35:18;23.80;63.20
48589;DHT22;34369;51.174;6.738;2023-06-22T15:37:52;23.70;63.10
48589;DHT22;34369;51.174;6.738;2023-06-22T15:40:24;23.70;63.10
48589;DHT22;34369;51.174;6.738;2023-06-22T15:42:57;23.60;63.20
48589;DHT22;34369;51.174;6.738;2023-06-22T15:45:31;23.50;63.30
48589;DHT22;34369;51.174;6.738;2023-06-22T15:48:06;23.50;63.30
48589;DHT22;34369;51.174;6.738;2023-06-22T15:50:38;23.40;63.60
48589;DHT22;34369;51.174;6.738;2023-06-22T15:53:11;23.30;63.60
48589;DHT22;34369;51.174;6.738;2023-06-22T15:55:43;23.30;63.90
48589;DHT22;34369;51.174;6.738;2023-06-22T15:58:17;23.30;64.40
48589;DHT22;34369;51.174;6.738;2023-06-22T16:00:51;23.10;64.70
48589;DHT22;34369;51.174;6.738;2023-06-22T16:03:25;23.10;65.00
48589;DHT22;34369;51.174;6.738;2023-06-22T16:05:58;23.10;65.40
48589;DHT22;34369;51.174;6.738;2023-06-22T16:08:31;23.00;65.40